Create Custom Reports and Graphics: Custom Report

AM-Roundhouse Top 7880'

Current Conditions

8/18/22 7:45 PM (-07:00)
Updated Every 15 Minutes
Temp 64.3 °F   4.6
RH 37 %   34
Wet Bulb 49.3 °F   4.5
Dew Pt 37.6 °F   12.8
Wind Spd 2.1 mph   2.7
Wind Dir NNW | 333 °
Wind Gust 10.8 mph   0.0
WindChill 64.7 °F   4.0

Last 6 Hours

AM-Roundhouse Top 7880'

15 Minute Data | America/Los_Angeles
as of 8/18/22 7:57 PM PDT
Date & Time Temp (°F) RH (%) Dew Pt (°F) Wet Bulb (°F) Wind Dir (°) Wind Spd (mph) Wind Gust (mph) WindChill (°F)
8/18/22 - 1945 64.3 37 37.6 49.3 NNW | 333 2.1 10.8 64.7
8/18/22 - 1930 64.9 37 37.8 49.7 W | 276 3.2 12.3 65.0
8/18/22 - 1915 65.2 37 38.1 49.9 NW | 319 1.9 6.5 65.4
8/18/22 - 1900 65.9 36 38.1 50.2 NNW | 327 2.6 9.8 65.9
8/18/22 - 1845 66.0 37 38.6 50.4 NW | 305 2.7 11.8 66.2
8/18/22 - 1830 66.2 36 38.8 50.6 NW | 313 3.3 12.3 66.7
8/18/22 - 1815 66.8 37 39.9 51.3 NW | 310 2.8 10.2 67.1
8/18/22 - 1800 67.3 36 39.3 51.2 NW | 313 4.1 12.5 68.0
8/18/22 - 1745 69.0 34 39.2 51.8 NW | 308 3.1 8.2 69.4
8/18/22 - 1730 69.6 34 39.9 52.3 NW | 321 3.7 9.6 70.5
8/18/22 - 1715 71.0 33 40.1 52.9 NNW | 332 2.8 9.7 71.2
8/18/22 - 1700 71.4 33 40.6 53.3 NW | 307 2.3 7.7 71.3
8/18/22 - 1645 70.9 32 40.0 52.9 NW | 321 2.4 9.9 71.1
8/18/22 - 1630 71.1 34 41.0 53.3 NW | 305 2.4 10.1 70.9
8/18/22 - 1615 70.1 35 40.9 53.0 NW | 326 6.6 13.6 70.9
8/18/22 - 1600 70.6 35 41.9 53.6 WNW | 301 5.6 17.4 70.8
8/18/22 - 1545 70.6 37 43.2 54.1 NW | 309 5.3 12.8 70.7
8/18/22 - 1530 70.1 36 41.9 53.4 NNW | 340 2.5 11.0 70.2
8/18/22 - 1515 70.3 36 42.0 53.5 N | 349 2.8 8.3 70.1
8/18/22 - 1500 70.2 35 41.4 53.2 NNW | 333 2.1 8.2 70.4
8/18/22 - 1445 70.2 37 43.0 53.9 NW | 325 5.5 11.8 70.7
8/18/22 - 1430 72.3 35 43.0 54.7 NNE | 27 3.4 10.4 72.5
8/18/22 - 1415 72.6 34 42.8 54.7 S | 177 3.0 13.1 70.8
8/18/22 - 1400 69.7 37 42.4 53.4 NNE | 14 3.3 13.7 69.2
Max 72.6 37 43.2 54.7 - 6.6 17.4 72.5
Avg 69.0 35 40.5 52.4 - 3.3 10.9 69.2
Min 64.3 32 37.6 49.3 - 1.9 6.5 64.7

Last 30 Days

AM-Roundhouse Top 7880'

Daily Data | America/Los_Angeles
as of 8/18/22 7:57 PM PDT
Date Daily Max Temp (°F) Daily Min Temp (°F) Wind Spd (mph) Daily Max Wind (mph) Max RH (%) Min RH (%) Wet Bulb (°F) MinBV Day (V)
8/17/22 76.8 53.4 2.7 20.0 93 25 52.2 13.5
8/16/22 78.7 61.5 2.5 15.1 35 19 50.0 13.5
8/15/22 76.5 55.9 3.3 20.6 29 9 46.4 13.5
8/14/22 72.7 56.7 4.3 22.5 32 12 44.9 13.5
8/13/22 72.0 55.8 5.4 19.0 32 13 44.3 13.5
8/12/22 69.8 54.1 5.2 21.5 58 23 47.2 13.5
8/11/22 68.7 55.8 6.3 24.1 64 33 50.1 13.5
8/10/22 67.1 54.9 7.3 26.3 63 37 49.3 13.5
8/9/22 70.7 55.3 5.6 24.7 69 37 51.6 13.5
8/8/22 73.8 61.1 4.1 20.3 69 34 53.2 13.5
8/7/22 74.5 57.4 4.5 25.1 75 36 54.8 13.5
8/6/22 69.8 52.5 5.1 21.3 95 41 55.0 13.5
8/5/22 65.4 53.9 3.5 21.6 97 57 55.0 13.5
8/4/22 77.1 60.7 4.3 27.7 60 38 55.9 13.5
8/3/22 76.7 56.3 3.7 19.5 77 36 56.1 13.5
8/2/22 73.4 55.5 4.0 20.8 76 45 54.7 13.5
8/1/22 66.6 56.8 9.1 23.1 77 50 53.4 13.5
7/31/22 76.7 60.2 7.8 24.1 71 35 56.4 13.5
7/30/22 83.5 64.8 3.3 20.3 60 17 54.7 13.5
7/29/22 83.0 64.5 2.4 15.2 50 19 54.2 13.5
7/28/22 83.9 62.5 2.9 14.9 53 17 54.5 13.5
7/27/22 81.7 63.8 3.5 18.2 56 26 55.7 13.5
7/26/22 75.2 62.2 4.6 17.6 55 14 50.4 13.5
7/25/22 79.7 62.0 5.4 24.4 49 19 50.8 13.5
7/24/22 77.2 57.9 4.3 23.1 36 18 47.9 13.5
7/23/22 72.8 57.7 3.9 22.8 28 13 45.1 13.5
7/22/22 72.9 55.6 4.0 23.0 29 14 43.9 13.5
7/21/22 76.8 57.9 2.7 23.1 34 14 47.1 13.5
7/20/22 75.6 60.1 5.4 16.4 55 15 51.5 13.5
7/19/22 72.6 61.0 4.7 23.9 55 39 52.9 13.5
Max 83.9 64.8 9.1 27.7 97 57 56.4 13.5
Avg - - 4.5 - - - 51.3 -
Min 65.4 52.5 2.4 14.9 28 9 43.9 13.5
Calm: 0.0%
Calm: 0.0%